createdAt,value
2019-05-03T00:02:44.035Z,86.48
2019-05-03T00:05:19.182Z,87.00
2019-05-03T00:07:53.829Z,87.19
2019-05-03T00:10:27.391Z,87.47
2019-05-03T00:13:01.936Z,87.28
2019-05-03T00:15:43.214Z,88.30
2019-05-03T00:18:16.700Z,87.71
2019-05-03T00:20:50.140Z,88.09
2019-05-03T00:23:23.534Z,87.57
2019-05-03T00:25:56.948Z,87.05
2019-05-03T00:28:32.078Z,87.30
2019-05-03T00:31:05.644Z,87.54
2019-05-03T00:33:39.846Z,87.79
2019-05-03T00:36:15.171Z,88.91
2019-05-03T00:38:49.398Z,88.50
2019-05-03T00:41:22.857Z,88.58
2019-05-03T00:43:56.284Z,88.79
2019-05-03T00:46:29.702Z,88.80
2019-05-03T00:49:03.813Z,89.28
2019-05-03T00:51:37.519Z,90.24
2019-05-03T00:54:12.638Z,89.35
2019-05-03T00:56:46.230Z,90.03
2019-05-03T00:59:19.651Z,89.80
2019-05-03T01:01:53.082Z,89.97
2019-05-03T01:04:26.504Z,90.13
2019-05-03T01:07:02.107Z,90.50
2019-05-03T01:09:35.611Z,90.15
2019-05-03T01:12:09.140Z,90.11
2019-05-03T01:14:44.180Z,88.68
2019-05-03T01:17:17.632Z,89.24
2019-05-03T01:19:52.132Z,89.64
2019-05-03T01:22:25.746Z,89.28
2019-05-03T01:24:59.150Z,89.51
2019-05-03T01:27:32.841Z,89.16
2019-05-03T01:30:07.436Z,89.35
2019-05-03T01:32:41.845Z,89.78
2019-05-03T01:35:15.488Z,89.96
2019-05-03T01:37:48.926Z,89.98
2019-05-03T01:40:22.343Z,89.63
2019-05-03T01:42:55.783Z,89.71
2019-05-03T01:45:29.199Z,90.27
2019-05-03T01:48:12.461Z,90.48
2019-05-03T01:50:52.063Z,89.36
2019-05-03T01:53:32.133Z,89.07
2019-05-03T01:56:05.565Z,87.65
2019-05-03T01:58:38.988Z,85.89
2019-05-03T02:01:14.153Z,85.70
2019-05-03T02:03:52.360Z,85.16
2019-05-03T02:06:25.840Z,85.00
2019-05-03T02:08:59.261Z,83.70
2019-05-03T02:11:32.706Z,83.08
2019-05-03T02:14:06.454Z,83.44
2019-05-03T02:16:41.920Z,82.26
2019-05-03T02:19:15.033Z,79.04
2019-05-03T02:21:48.443Z,78.02
2019-05-03T02:24:22.177Z,74.81
2019-05-03T02:26:55.653Z,75.20
2019-05-03T02:29:29.083Z,75.04
2019-05-03T02:32:03.302Z,76.01
2019-05-03T02:34:37.022Z,76.36
2019-05-03T02:37:13.599Z,75.40
2019-05-03T02:39:47.113Z,74.61
2019-05-03T02:42:20.524Z,74.02
2019-05-03T02:44:55.349Z,73.67
2019-05-03T02:47:30.550Z,74.21
2019-05-03T02:50:08.185Z,74.69
2019-05-03T02:52:41.576Z,74.61
2019-05-03T02:55:16.257Z,74.90
2019-05-03T02:57:49.910Z,74.89
2019-05-03T03:00:26.378Z,75.27
2019-05-03T03:02:59.866Z,75.53
2019-05-03T03:05:35.269Z,75.88
2019-05-03T03:08:09.363Z,76.45
2019-05-03T03:10:45.491Z,76.64
2019-05-03T03:13:21.919Z,76.79
2019-05-03T03:15:57.590Z,77.47
2019-05-03T03:18:36.408Z,77.45
2019-05-03T03:21:15.710Z,76.30
2019-05-03T03:24:06.789Z,77.09
2019-05-03T03:26:43.308Z,76.83
2019-05-03T03:29:17.923Z,76.82
2019-05-03T03:32:00.333Z,76.89
2019-05-03T03:34:38.694Z,77.12
2019-05-03T03:37:15.344Z,77.31
2019-05-03T03:39:47.759Z,77.67
2019-05-03T03:42:25.014Z,78.25
2019-05-03T03:44:57.920Z,78.38
2019-05-03T03:47:35.869Z,78.70
2019-05-03T03:50:10.318Z,78.78
2019-05-03T03:52:45.320Z,79.44
2019-05-03T03:55:18.776Z,78.71
2019-05-03T03:57:55.725Z,79.11
2019-05-03T04:00:28.678Z,78.20
2019-05-03T04:03:05.874Z,77.49
2019-05-03T04:05:38.690Z,77.73
2019-05-03T04:08:12.180Z,77.86
2019-05-03T04:10:46.312Z,76.71
2019-05-03T04:13:21.727Z,77.33
2019-05-03T04:15:57.202Z,77.67
2019-05-03T04:18:33.125Z,77.17
2019-05-03T04:21:07.275Z,77.87
2019-05-03T04:23:41.334Z,76.61
2019-05-03T04:26:16.348Z,75.68
2019-05-03T04:28:50.164Z,75.48
2019-05-03T04:31:26.248Z,76.26
2019-05-03T04:33:58.708Z,76.25
2019-05-03T04:36:32.122Z,76.87
2019-05-03T04:39:07.088Z,76.75
2019-05-03T04:41:40.514Z,77.20
2019-05-03T04:44:15.509Z,76.95
2019-05-03T04:46:49.054Z,77.06
2019-05-03T04:49:22.471Z,77.72
2019-05-03T04:51:56.112Z,78.25
2019-05-03T04:54:35.570Z,78.29
2019-05-03T04:57:09.150Z,76.36
2019-05-03T04:59:44.985Z,75.87
2019-05-03T05:02:17.721Z,74.27
2019-05-03T05:04:51.207Z,75.18
2019-05-03T05:07:26.139Z,75.29
2019-05-03T05:09:59.880Z,77.36
2019-05-03T05:12:35.517Z,76.70
2019-05-03T05:15:08.510Z,76.47
2019-05-03T05:17:46.147Z,77.29
2019-05-03T05:20:30.472Z,77.83
2019-05-03T05:23:04.608Z,78.21
2019-05-03T05:25:55.062Z,77.77
2019-05-03T05:28:39.181Z,76.62
2019-05-03T05:31:12.714Z,77.29
2019-05-03T05:33:46.110Z,77.03
2019-05-03T05:36:19.545Z,77.17
2019-05-03T05:38:55.134Z,76.53
2019-05-03T05:41:28.197Z,76.66
2019-05-03T05:44:01.609Z,77.11
2019-05-03T05:46:36.690Z,76.06
2019-05-03T05:49:11.727Z,75.22
2019-05-03T05:51:45.163Z,74.90
2019-05-03T05:54:18.578Z,74.59
2019-05-03T05:56:54.704Z,74.55
2019-05-03T05:59:30.013Z,72.29
2019-05-03T06:02:05.188Z,69.77
2019-05-03T06:04:38.609Z,70.80
2019-05-03T06:07:28.358Z,71.79
2019-05-03T06:10:06.398Z,72.91
2019-05-03T06:12:50.706Z,73.90
2019-05-03T06:15:34.597Z,74.49
2019-05-03T06:18:09.589Z,74.72
2019-05-03T06:20:47.653Z,72.21
2019-05-03T06:23:25.417Z,72.26
2019-05-03T06:25:59.531Z,71.52
2019-05-03T06:28:35.283Z,71.10
2019-05-03T06:31:10.527Z,71.41
2019-05-03T06:33:45.034Z,70.12
2019-05-03T06:36:18.579Z,69.64
2019-05-03T06:38:52.021Z,68.66
2019-05-03T06:41:25.453Z,66.62
2019-05-03T06:43:58.870Z,66.71
2019-05-03T06:46:46.089Z,61.76
2019-05-03T06:49:19.487Z,65.03
2019-05-03T06:51:54.634Z,65.16
2019-05-03T06:54:29.984Z,61.33
2019-05-03T06:57:05.730Z,63.91
2019-05-03T06:59:42.720Z,65.44
2019-05-03T07:02:25.180Z,64.05
2019-05-03T07:05:00.334Z,62.80
2019-05-03T07:07:41.387Z,58.41
2019-05-03T07:10:25.369Z,58.04
2019-05-03T07:13:00.569Z,59.15
2019-05-03T07:15:35.108Z,57.03
2019-05-03T07:18:08.662Z,55.62
2019-05-03T07:20:44.566Z,56.86
2019-05-03T07:23:18.009Z,59.85
2019-05-03T07:25:51.422Z,58.08
2019-05-03T07:28:24.965Z,62.13
2019-05-03T07:30:58.348Z,63.04
2019-05-03T07:33:34.867Z,65.08
2019-05-03T07:36:08.420Z,66.51
2019-05-03T07:38:41.863Z,66.83
2019-05-03T07:41:15.271Z,65.59
2019-05-03T07:43:48.709Z,65.90
2019-05-03T07:46:22.205Z,66.69
2019-05-03T07:48:55.640Z,66.72
2019-05-03T07:51:29.050Z,66.39
2019-05-03T07:54:04.533Z,66.21
2019-05-03T07:56:39.303Z,65.18
2019-05-03T07:59:14.897Z,65.47
2019-05-03T08:01:54.527Z,64.03
2019-05-03T08:04:27.437Z,63.26
2019-05-03T08:07:00.865Z,61.85
2019-05-03T08:09:35.063Z,61.55
2019-05-03T08:12:08.596Z,62.06
2019-05-03T08:14:42.048Z,62.22
2019-05-03T08:17:15.484Z,62.29
2019-05-03T08:19:48.950Z,62.49
2019-05-03T08:22:22.357Z,63.53
2019-05-03T08:24:55.799Z,63.56
2019-05-03T08:27:29.206Z,62.59
2019-05-03T08:30:04.674Z,62.39
2019-05-03T08:32:57.842Z,63.45
2019-05-03T08:35:32.903Z,62.68
2019-05-03T08:38:06.492Z,62.34
2019-05-03T08:40:41.651Z,62.91
2019-05-03T08:43:15.599Z,63.23
2019-05-03T08:45:49.125Z,62.88
2019-05-03T08:48:24.818Z,61.11
2019-05-03T08:50:57.746Z,60.56
2019-05-03T08:53:31.172Z,60.91
2019-05-03T08:56:05.253Z,59.66
2019-05-03T08:58:38.781Z,60.78
2019-05-03T09:01:14.623Z,61.50
2019-05-03T09:03:47.339Z,61.13
2019-05-03T09:06:20.762Z,57.23
2019-05-03T09:08:57.136Z,58.07
2019-05-03T09:11:34.007Z,56.81
2019-05-03T09:14:06.227Z,56.36
2019-05-03T09:16:39.666Z,57.40
2019-05-03T09:19:14.759Z,59.13
2019-05-03T09:21:48.317Z,59.61
2019-05-03T09:24:21.741Z,60.79
2019-05-03T09:26:55.652Z,60.41
2019-05-03T09:29:40.228Z,58.58
2019-05-03T09:32:05.152Z,57.76
2019-05-03T09:34:38.743Z,57.61
2019-05-03T09:37:12.180Z,56.47
2019-05-03T09:39:45.597Z,56.09
2019-05-03T09:42:19.039Z,53.16
2019-05-03T09:44:52.671Z,53.27
2019-05-03T09:47:26.017Z,48.28
2019-05-03T09:50:02.007Z,54.63
2019-05-03T09:52:35.514Z,48.35
2019-05-03T09:55:10.962Z,47.84
2019-05-03T09:57:44.546Z,51.35
2019-05-03T10:00:18.486Z,49.34
2019-05-03T10:02:51.926Z,48.42
2019-05-03T10:05:25.677Z,48.01
2019-05-03T10:07:59.312Z,46.75
2019-05-03T10:10:35.686Z,45.54
2019-05-03T10:13:14.892Z,47.24
2019-05-03T10:15:45.115Z,45.71
2019-05-03T10:18:18.770Z,47.27
2019-05-03T10:20:52.253Z,47.27
2019-05-03T10:23:36.039Z,45.88
2019-05-03T10:26:10.090Z,45.68
2019-05-03T10:28:43.588Z,45.22
2019-05-03T10:31:17.493Z,46.87
2019-05-03T10:33:52.560Z,45.92
2019-05-03T10:36:26.063Z,43.69
2019-05-03T10:38:59.556Z,42.26
2019-05-03T10:41:34.774Z,43.18
2019-05-03T10:44:08.416Z,42.74
2019-05-03T10:46:41.844Z,42.74
2019-05-03T10:49:15.486Z,42.64
2019-05-03T10:51:50.670Z,42.64
2019-05-03T10:54:24.087Z,44.25
2019-05-03T10:56:59.120Z,42.52
2019-05-03T10:59:32.572Z,41.41
2019-05-03T11:02:25.330Z,43.39
2019-05-03T11:04:58.988Z,43.49
2019-05-03T11:07:34.454Z,43.92
2019-05-03T11:10:08.201Z,42.16
2019-05-03T11:12:41.661Z,41.82
2019-05-03T11:15:15.699Z,40.67
2019-05-03T11:17:49.164Z,42.23
2019-05-03T11:20:36.663Z,43.87
2019-05-03T11:23:10.129Z,43.87
2019-05-03T11:25:45.253Z,43.49
2019-05-03T11:28:20.466Z,43.67
2019-05-03T11:31:01.369Z,43.67
2019-05-03T11:33:36.508Z,43.06
2019-05-03T11:36:26.343Z,43.60
2019-05-03T11:38:59.741Z,43.60
2019-05-03T11:41:35.817Z,43.78
2019-05-03T11:44:27.384Z,43.16
2019-05-03T11:47:00.803Z,43.68
2019-05-03T11:49:34.834Z,41.53
2019-05-03T11:52:08.450Z,41.82
2019-05-03T11:54:41.856Z,41.39
2019-05-03T11:57:16.927Z,41.51
2019-05-03T11:59:50.340Z,40.72
2019-05-03T12:02:31.180Z,41.70
2019-05-03T12:05:10.961Z,40.74
2019-05-03T12:07:45.542Z,39.92
2019-05-03T12:10:32.661Z,40.03
2019-05-03T12:12:57.240Z,41.68
2019-05-03T12:15:30.654Z,40.97
2019-05-03T12:18:06.802Z,42.52
2019-05-03T12:20:41.622Z,43.43
2019-05-03T12:23:16.808Z,42.74
2019-05-03T12:25:51.117Z,42.84
2019-05-03T12:28:25.727Z,41.94
2019-05-03T12:30:59.228Z,41.57
2019-05-03T12:33:35.144Z,41.87
2019-05-03T12:36:07.902Z,41.17
2019-05-03T12:38:41.424Z,41.53
2019-05-03T12:41:15.108Z,41.34
2019-05-03T12:43:48.659Z,41.46
2019-05-03T12:46:22.089Z,42.02
2019-05-03T12:48:55.546Z,40.44
2019-05-03T12:51:28.965Z,39.07
2019-05-03T12:54:04.710Z,39.50
2019-05-03T12:56:37.546Z,37.48
2019-05-03T12:59:28.836Z,40.06
2019-05-03T13:02:06.890Z,40.36
2019-05-03T13:04:41.990Z,40.02
2019-05-03T13:07:20.077Z,41.07
2019-05-03T13:09:54.475Z,40.85
2019-05-03T13:12:29.631Z,42.33
2019-05-03T13:15:05.063Z,42.97
2019-05-03T13:17:38.513Z,42.97
2019-05-03T13:20:15.682Z,44.51
2019-05-03T13:22:49.088Z,44.51
2019-05-03T13:25:22.520Z,42.53
2019-05-03T13:27:55.925Z,41.12
2019-05-03T13:30:29.347Z,42.03
2019-05-03T13:33:02.730Z,41.15
2019-05-03T13:35:36.172Z,41.08
2019-05-03T13:38:09.569Z,40.83
2019-05-03T13:40:45.188Z,41.34
2019-05-03T13:43:18.272Z,42.39
2019-05-03T13:45:51.697Z,41.91
2019-05-03T13:48:26.278Z,41.72
2019-05-03T13:51:00.107Z,43.40
2019-05-03T13:53:34.889Z,42.32
2019-05-03T13:56:08.515Z,42.23
2019-05-03T13:58:42.035Z,41.75
2019-05-03T14:01:15.518Z,41.16
2019-05-03T14:03:48.999Z,40.32
2019-05-03T14:06:24.149Z,40.32
2019-05-03T14:08:57.570Z,42.82
2019-05-03T14:11:30.992Z,42.82
2019-05-03T14:14:04.809Z,43.02
2019-05-03T14:16:38.409Z,43.87
2019-05-03T14:19:16.359Z,44.33
2019-05-03T14:21:54.722Z,45.27
2019-05-03T14:24:28.226Z,47.75
2019-05-03T14:27:01.653Z,48.29
2019-05-03T14:29:35.052Z,47.53
2019-05-03T14:32:08.485Z,47.25
2019-05-03T14:34:41.941Z,48.62
2019-05-03T14:37:15.354Z,49.57
2019-05-03T14:39:48.813Z,44.91
2019-05-03T14:42:22.312Z,44.61
2019-05-03T14:44:55.719Z,44.74
2019-05-03T14:47:29.304Z,44.79
2019-05-03T14:50:05.240Z,44.61
2019-05-03T14:52:38.100Z,45.79
2019-05-03T14:55:16.335Z,46.28
2019-05-03T14:57:55.277Z,45.00
2019-05-03T15:00:36.367Z,44.59
2019-05-03T15:03:11.441Z,44.08
2019-05-03T15:05:44.951Z,44.80
2019-05-03T15:08:18.354Z,45.16
2019-05-03T15:10:51.909Z,44.18
2019-05-03T15:13:25.437Z,44.76
2019-05-03T15:15:58.832Z,45.12
2019-05-03T15:18:32.316Z,45.53
2019-05-03T15:21:05.807Z,45.62
2019-05-03T15:23:39.265Z,45.91
2019-05-03T15:26:12.662Z,46.35
2019-05-03T15:28:46.108Z,45.93
2019-05-03T15:31:19.496Z,46.36
2019-05-03T15:33:55.387Z,46.18
2019-05-03T15:36:28.188Z,46.08
2019-05-03T15:39:01.622Z,45.66
2019-05-03T15:41:36.477Z,45.88
2019-05-03T15:44:11.634Z,45.92
2019-05-03T15:46:52.175Z,46.12
2019-05-03T15:49:27.691Z,46.19
2019-05-03T15:52:00.814Z,46.34
2019-05-03T15:54:35.307Z,46.27
2019-05-03T15:57:09.815Z,46.70
2019-05-03T15:59:44.502Z,46.47
2019-05-03T16:02:17.962Z,47.10
2019-05-03T16:04:51.406Z,46.88
2019-05-03T16:07:25.076Z,47.13
2019-05-03T16:09:58.629Z,47.80
2019-05-03T16:12:32.059Z,46.68
2019-05-03T16:15:07.316Z,47.77
2019-05-03T16:17:40.727Z,46.27
2019-05-03T16:20:14.449Z,46.05
2019-05-03T16:22:47.946Z,46.52
2019-05-03T16:25:21.764Z,45.92
2019-05-03T16:28:02.366Z,46.33
2019-05-03T16:30:40.359Z,45.53
2019-05-03T16:33:26.652Z,45.98
2019-05-03T16:35:49.047Z,45.42
2019-05-03T16:38:24.669Z,45.64
2019-05-03T16:40:57.649Z,46.12
2019-05-03T16:43:31.344Z,45.67
2019-05-03T16:46:05.620Z,45.59
2019-05-03T16:48:39.365Z,45.68
2019-05-03T16:51:15.088Z,46.13
2019-05-03T16:53:47.996Z,45.99
2019-05-03T16:56:24.358Z,45.96
2019-05-03T16:58:57.556Z,46.50
2019-05-03T17:01:30.980Z,46.85
2019-05-03T17:04:22.696Z,46.47
2019-05-03T17:07:05.472Z,46.66
2019-05-03T17:09:46.344Z,46.60
2019-05-03T17:12:21.458Z,47.18
2019-05-03T17:14:57.022Z,47.27
2019-05-03T17:17:30.669Z,47.79
2019-05-03T17:20:06.412Z,47.67
2019-05-03T17:22:39.837Z,47.09
2019-05-03T17:25:15.002Z,47.23
2019-05-03T17:27:48.507Z,47.36
2019-05-03T17:30:22.075Z,47.27
2019-05-03T17:32:55.552Z,46.89
2019-05-03T17:35:28.988Z,47.38
2019-05-03T17:38:02.891Z,47.26
2019-05-03T17:40:37.966Z,47.51
2019-05-03T17:43:15.524Z,47.79
2019-05-03T17:45:54.883Z,48.13
2019-05-03T17:48:28.340Z,47.93
2019-05-03T17:51:01.733Z,48.96
2019-05-03T17:53:39.529Z,48.42
2019-05-03T17:56:17.258Z,49.50
2019-05-03T17:58:52.389Z,48.96
2019-05-03T18:01:44.605Z,49.79
2019-05-03T18:04:31.406Z,50.10
2019-05-03T18:07:06.651Z,49.90
2019-05-03T18:09:41.711Z,50.74
2019-05-03T18:12:15.172Z,50.98
2019-05-03T18:14:48.539Z,51.36
2019-05-03T18:17:22.003Z,51.92
2019-05-03T18:19:55.529Z,52.59
2019-05-03T18:22:28.977Z,52.22
2019-05-03T18:25:02.472Z,52.44
2019-05-03T18:27:35.903Z,52.55
2019-05-03T18:30:09.485Z,52.92
2019-05-03T18:32:42.966Z,53.54
2019-05-03T18:35:16.480Z,53.37
2019-05-03T18:37:58.738Z,53.43
2019-05-03T18:40:35.297Z,53.82
2019-05-03T18:43:16.026Z,54.33
2019-05-03T18:45:54.566Z,54.63
2019-05-03T18:48:28.154Z,54.48
2019-05-03T18:51:01.630Z,53.50
2019-05-03T18:53:35.059Z,53.77
2019-05-03T18:56:08.549Z,52.61
2019-05-03T18:58:42.012Z,50.82
2019-05-03T19:01:15.571Z,50.71
2019-05-03T19:03:50.645Z,51.10
2019-05-03T19:06:24.200Z,50.74
2019-05-03T19:09:05.445Z,49.84
2019-05-03T19:11:56.529Z,49.34
2019-05-03T19:14:29.943Z,48.17
2019-05-03T19:17:08.097Z,48.14
2019-05-03T19:19:44.667Z,48.11
2019-05-03T19:22:18.221Z,47.65
2019-05-03T19:24:51.807Z,47.24
2019-05-03T19:27:25.304Z,47.39
2019-05-03T19:29:58.734Z,47.07
2019-05-03T19:32:32.214Z,48.19
2019-05-03T19:35:08.101Z,46.91
2019-05-03T19:37:41.710Z,47.33
2019-05-03T19:40:15.403Z,47.21
2019-05-03T19:42:48.949Z,48.39
2019-05-03T19:45:24.672Z,47.08
2019-05-03T19:47:57.657Z,47.20
2019-05-03T19:50:31.080Z,47.67
2019-05-03T19:53:14.366Z,47.39
2019-05-03T19:55:50.521Z,48.42
2019-05-03T19:58:24.758Z,48.67
2019-05-03T20:01:15.968Z,48.02
2019-05-03T20:03:51.029Z,47.86
2019-05-03T20:06:31.955Z,47.89
2019-05-03T20:09:11.573Z,48.62
2019-05-03T20:11:46.046Z,48.81
2019-05-03T20:14:19.494Z,48.06
2019-05-03T20:16:54.875Z,49.01
2019-05-03T20:19:28.077Z,48.34
2019-05-03T20:22:01.501Z,48.29
2019-05-03T20:24:35.011Z,49.05
2019-05-03T20:27:08.473Z,48.39
2019-05-03T20:29:46.370Z,47.94
2019-05-03T20:32:19.742Z,48.08
2019-05-03T20:34:55.014Z,47.91
2019-05-03T20:37:28.402Z,48.99
2019-05-03T20:40:02.659Z,48.20
2019-05-03T20:42:55.844Z,48.29
2019-05-03T20:45:36.946Z,48.21
2019-05-03T20:48:12.108Z,48.26
2019-05-03T20:50:45.529Z,48.72
2019-05-03T20:53:18.999Z,49.61
2019-05-03T20:55:54.174Z,48.86
2019-05-03T20:58:27.697Z,48.73
2019-05-03T21:01:01.195Z,48.89
2019-05-03T21:03:34.615Z,49.17
2019-05-03T21:06:08.096Z,49.64
2019-05-03T21:08:52.292Z,53.34
2019-05-03T21:11:16.697Z,55.15
2019-05-03T21:13:50.274Z,54.75
2019-05-03T21:16:37.240Z,56.25
2019-05-03T21:19:13.977Z,56.22
2019-05-03T21:21:49.176Z,56.54
2019-05-03T21:24:26.211Z,56.71
2019-05-03T21:26:59.370Z,55.00
2019-05-03T21:29:34.612Z,54.53
2019-05-03T21:32:08.014Z,54.27
2019-05-03T21:34:41.456Z,53.76
2019-05-03T21:37:15.199Z,54.19
2019-05-03T21:39:48.580Z,54.34
2019-05-03T21:42:22.005Z,53.15
2019-05-03T21:44:55.630Z,53.49
2019-05-03T21:47:42.568Z,52.47
2019-05-03T21:50:17.945Z,52.31
2019-05-03T21:52:51.355Z,51.63
2019-05-03T21:55:24.846Z,51.86
2019-05-03T21:57:58.207Z,52.81
2019-05-03T22:00:42.673Z,52.06
2019-05-03T22:03:16.400Z,52.93
2019-05-03T22:05:54.911Z,54.05
2019-05-03T22:08:25.026Z,54.05
2019-05-03T22:10:58.662Z,53.67
2019-05-03T22:13:32.043Z,54.07
2019-05-03T22:16:15.886Z,54.12
2019-05-03T22:18:49.285Z,54.95
2019-05-03T22:21:39.506Z,54.54
2019-05-03T22:24:16.967Z,54.67
2019-05-03T22:27:01.217Z,54.98
2019-05-03T22:29:35.598Z,55.31
2019-05-03T22:32:09.360Z,55.53
2019-05-03T22:34:43.465Z,55.53
2019-05-03T22:37:16.912Z,55.78
2019-05-03T22:39:50.342Z,56.61
2019-05-03T22:42:25.290Z,56.02
2019-05-03T22:44:58.961Z,55.79
2019-05-03T22:47:32.396Z,55.96
2019-05-03T22:50:06.718Z,56.03
2019-05-03T22:52:40.140Z,56.72
2019-05-03T22:55:15.318Z,56.77
2019-05-03T22:57:48.715Z,56.66
2019-05-03T23:00:22.177Z,57.22
2019-05-03T23:02:55.610Z,57.61
2019-05-03T23:05:29.018Z,57.77
2019-05-03T23:08:02.443Z,57.93
2019-05-03T23:10:35.843Z,58.22
2019-05-03T23:13:09.259Z,58.06
2019-05-03T23:15:42.680Z,56.92
2019-05-03T23:18:16.115Z,57.25
2019-05-03T23:21:00.061Z,57.86
2019-05-03T23:23:49.905Z,57.65
2019-05-03T23:26:25.259Z,57.68
2019-05-03T23:28:58.483Z,58.13
2019-05-03T23:31:34.365Z,58.27
2019-05-03T23:34:07.958Z,59.58
2019-05-03T23:36:41.382Z,59.01
2019-05-03T23:39:14.808Z,59.29
2019-05-03T23:41:48.204Z,59.41
2019-05-03T23:44:21.615Z,59.51
2019-05-03T23:46:59.126Z,60.94
2019-05-03T23:49:32.553Z,61.99
2019-05-03T23:52:07.664Z,60.96
2019-05-03T23:54:41.119Z,61.70
2019-05-03T23:57:14.519Z,62.26
2019-05-03T23:59:47.942Z,62.61
